sensor_id;sensor_type;location;lat;lon;timestamp;P1;durP1;ratioP1;P2;durP2;ratioP2
7899;SDS011;3995;50.856;4.404;2023-06-26T00:01:45;3.73;;;3.37;;
7899;SDS011;3995;50.856;4.404;2023-06-26T00:04:12;5.60;;;4.20;;
7899;SDS011;3995;50.856;4.404;2023-06-26T00:06:39;5.47;;;3.70;;
7899;SDS011;3995;50.856;4.404;2023-06-26T00:09:08;5.30;;;4.07;;
7899;SDS011;3995;50.856;4.404;2023-06-26T00:11:37;6.63;;;4.53;;
7899;SDS011;3995;50.856;4.404;2023-06-26T00:14:04;7.63;;;3.90;;
7899;SDS011;3995;50.856;4.404;2023-06-26T00:16:34;6.70;;;3.87;;
7899;SDS011;3995;50.856;4.404;2023-06-26T00:19:02;4.70;;;3.47;;
7899;SDS011;3995;50.856;4.404;2023-06-26T00:21:30;5.63;;;3.53;;
7899;SDS011;3995;50.856;4.404;2023-06-26T00:23:57;5.43;;;3.47;;
7899;SDS011;3995;50.856;4.404;2023-06-26T00:26:24;6.57;;;2.60;;
7899;SDS011;3995;50.856;4.404;2023-06-26T00:28:52;7.33;;;3.47;;
7899;SDS011;3995;50.856;4.404;2023-06-26T00:31:19;4.23;;;2.93;;
7899;SDS011;3995;50.856;4.404;2023-06-26T00:33:49;6.23;;;2.90;;
7899;SDS011;3995;50.856;4.404;2023-06-26T00:36:16;4.13;;;2.77;;
7899;SDS011;3995;50.856;4.404;2023-06-26T00:38:48;5.43;;;3.20;;
7899;SDS011;3995;50.856;4.404;2023-06-26T00:41:15;7.50;;;3.60;;
7899;SDS011;3995;50.856;4.404;2023-06-26T00:43:42;4.43;;;3.13;;
7899;SDS011;3995;50.856;4.404;2023-06-26T00:46:10;6.13;;;3.93;;
7899;SDS011;3995;50.856;4.404;2023-06-26T00:48:41;3.70;;;3.03;;
7899;SDS011;3995;50.856;4.404;2023-06-26T00:51:11;4.50;;;3.43;;
7899;SDS011;3995;50.856;4.404;2023-06-26T00:53:39;4.60;;;3.17;;
7899;SDS011;3995;50.856;4.404;2023-06-26T00:56:07;5.37;;;2.80;;
7899;SDS011;3995;50.856;4.404;2023-06-26T00:58:36;8.10;;;3.03;;
7899;SDS011;3995;50.856;4.404;2023-06-26T01:01:04;3.90;;;2.90;;
7899;SDS011;3995;50.856;4.404;2023-06-26T01:03:34;5.27;;;3.33;;
7899;SDS011;3995;50.856;4.404;2023-06-26T01:06:04;5.20;;;3.07;;
7899;SDS011;3995;50.856;4.404;2023-06-26T01:08:38;4.50;;;2.60;;
7899;SDS011;3995;50.856;4.404;2023-06-26T01:11:06;3.93;;;2.80;;
7899;SDS011;3995;50.856;4.404;2023-06-26T01:13:34;5.10;;;3.20;;
7899;SDS011;3995;50.856;4.404;2023-06-26T01:16:03;5.87;;;2.80;;
7899;SDS011;3995;50.856;4.404;2023-06-26T01:18:32;5.10;;;3.30;;
7899;SDS011;3995;50.856;4.404;2023-06-26T01:21:01;3.73;;;2.83;;
7899;SDS011;3995;50.856;4.404;2023-06-26T01:23:30;5.17;;;2.90;;
7899;SDS011;3995;50.856;4.404;2023-06-26T01:28:49;5.00;;;2.70;;
7899;SDS011;3995;50.856;4.404;2023-06-26T01:31:19;4.40;;;2.40;;
7899;SDS011;3995;50.856;4.404;2023-06-26T01:33:47;5.10;;;3.03;;
7899;SDS011;3995;50.856;4.404;2023-06-26T01:36:15;4.43;;;2.80;;
7899;SDS011;3995;50.856;4.404;2023-06-26T01:38:43;7.90;;;2.70;;
7899;SDS011;3995;50.856;4.404;2023-06-26T01:41:11;4.23;;;2.90;;
7899;SDS011;3995;50.856;4.404;2023-06-26T01:43:43;4.30;;;2.50;;
7899;SDS011;3995;50.856;4.404;2023-06-26T01:46:27;4.93;;;2.87;;
7899;SDS011;3995;50.856;4.404;2023-06-26T01:49:05;6.30;;;3.00;;
7899;SDS011;3995;50.856;4.404;2023-06-26T01:51:38;5.40;;;2.80;;
7899;SDS011;3995;50.856;4.404;2023-06-26T01:54:10;4.47;;;3.17;;
7899;SDS011;3995;50.856;4.404;2023-06-26T01:56:40;6.63;;;2.70;;
7899;SDS011;3995;50.856;4.404;2023-06-26T01:59:11;6.33;;;3.10;;
7899;SDS011;3995;50.856;4.404;2023-06-26T02:01:40;3.73;;;2.50;;
7899;SDS011;3995;50.856;4.404;2023-06-26T02:04:08;6.10;;;2.90;;
7899;SDS011;3995;50.856;4.404;2023-06-26T02:06:36;5.00;;;2.63;;
7899;SDS011;3995;50.856;4.404;2023-06-26T02:09:04;4.70;;;3.13;;
7899;SDS011;3995;50.856;4.404;2023-06-26T02:11:31;5.80;;;2.80;;
7899;SDS011;3995;50.856;4.404;2023-06-26T02:13:58;4.73;;;2.53;;
7899;SDS011;3995;50.856;4.404;2023-06-26T02:16:29;5.07;;;2.87;;
7899;SDS011;3995;50.856;4.404;2023-06-26T02:18:56;6.40;;;2.63;;
7899;SDS011;3995;50.856;4.404;2023-06-26T02:21:24;9.80;;;2.90;;
7899;SDS011;3995;50.856;4.404;2023-06-26T02:23:51;8.07;;;3.77;;
7899;SDS011;3995;50.856;4.404;2023-06-26T02:26:19;8.73;;;3.63;;
7899;SDS011;3995;50.856;4.404;2023-06-26T02:28:46;6.77;;;2.90;;
7899;SDS011;3995;50.856;4.404;2023-06-26T02:31:14;4.33;;;2.53;;
7899;SDS011;3995;50.856;4.404;2023-06-26T02:33:44;11.13;;;3.57;;
7899;SDS011;3995;50.856;4.404;2023-06-26T02:36:11;6.83;;;3.90;;
7899;SDS011;3995;50.856;4.404;2023-06-26T02:38:38;6.77;;;2.90;;
7899;SDS011;3995;50.856;4.404;2023-06-26T02:41:06;6.13;;;3.00;;
7899;SDS011;3995;50.856;4.404;2023-06-26T02:43:34;5.30;;;3.00;;
7899;SDS011;3995;50.856;4.404;2023-06-26T02:46:01;6.27;;;3.20;;
7899;SDS011;3995;50.856;4.404;2023-06-26T02:48:29;5.83;;;2.87;;
7899;SDS011;3995;50.856;4.404;2023-06-26T02:50:58;5.40;;;3.27;;
7899;SDS011;3995;50.856;4.404;2023-06-26T02:53:26;8.10;;;3.00;;
7899;SDS011;3995;50.856;4.404;2023-06-26T02:55:54;10.63;;;3.40;;
7899;SDS011;3995;50.856;4.404;2023-06-26T02:58:22;6.47;;;3.17;;
7899;SDS011;3995;50.856;4.404;2023-06-26T03:00:50;6.77;;;2.77;;
7899;SDS011;3995;50.856;4.404;2023-06-26T03:03:18;9.37;;;3.67;;
7899;SDS011;3995;50.856;4.404;2023-06-26T03:05:47;7.40;;;3.40;;
7899;SDS011;3995;50.856;4.404;2023-06-26T03:08:17;5.53;;;2.93;;
7899;SDS011;3995;50.856;4.404;2023-06-26T03:10:45;7.03;;;3.40;;
7899;SDS011;3995;50.856;4.404;2023-06-26T03:13:13;11.43;;;3.40;;
7899;SDS011;3995;50.856;4.404;2023-06-26T03:15:40;19.03;;;4.70;;
7899;SDS011;3995;50.856;4.404;2023-06-26T03:18:08;10.13;;;3.50;;
7899;SDS011;3995;50.856;4.404;2023-06-26T03:20:35;5.57;;;3.00;;
7899;SDS011;3995;50.856;4.404;2023-06-26T03:23:03;6.83;;;3.73;;
7899;SDS011;3995;50.856;4.404;2023-06-26T03:25:32;7.50;;;3.20;;
7899;SDS011;3995;50.856;4.404;2023-06-26T03:27:59;11.10;;;3.20;;
7899;SDS011;3995;50.856;4.404;2023-06-26T03:30:27;6.10;;;3.13;;
7899;SDS011;3995;50.856;4.404;2023-06-26T03:32:55;7.83;;;3.53;;
7899;SDS011;3995;50.856;4.404;2023-06-26T03:35:22;6.57;;;3.30;;
7899;SDS011;3995;50.856;4.404;2023-06-26T03:37:49;9.20;;;3.10;;
7899;SDS011;3995;50.856;4.404;2023-06-26T03:40:18;8.33;;;3.00;;
7899;SDS011;3995;50.856;4.404;2023-06-26T03:42:48;12.03;;;3.80;;
7899;SDS011;3995;50.856;4.404;2023-06-26T03:45:16;8.27;;;3.70;;
7899;SDS011;3995;50.856;4.404;2023-06-26T03:47:44;7.67;;;3.40;;
7899;SDS011;3995;50.856;4.404;2023-06-26T03:50:13;9.30;;;3.00;;
7899;SDS011;3995;50.856;4.404;2023-06-26T03:52:41;9.03;;;3.30;;
7899;SDS011;3995;50.856;4.404;2023-06-26T03:55:09;7.27;;;3.00;;
7899;SDS011;3995;50.856;4.404;2023-06-26T03:57:37;10.00;;;4.30;;
7899;SDS011;3995;50.856;4.404;2023-06-26T04:00:08;10.33;;;3.53;;
7899;SDS011;3995;50.856;4.404;2023-06-26T04:02:38;7.40;;;3.10;;
7899;SDS011;3995;50.856;4.404;2023-06-26T04:05:05;7.03;;;3.20;;
7899;SDS011;3995;50.856;4.404;2023-06-26T04:07:32;6.00;;;2.90;;
7899;SDS011;3995;50.856;4.404;2023-06-26T04:09:59;9.13;;;3.83;;
7899;SDS011;3995;50.856;4.404;2023-06-26T04:12:27;10.53;;;3.73;;
7899;SDS011;3995;50.856;4.404;2023-06-26T04:14:54;9.33;;;3.10;;
7899;SDS011;3995;50.856;4.404;2023-06-26T04:17:23;9.73;;;3.83;;
7899;SDS011;3995;50.856;4.404;2023-06-26T04:19:50;8.63;;;3.40;;
7899;SDS011;3995;50.856;4.404;2023-06-26T04:22:17;9.97;;;4.43;;
7899;SDS011;3995;50.856;4.404;2023-06-26T04:24:45;10.53;;;3.63;;
7899;SDS011;3995;50.856;4.404;2023-06-26T04:27:14;10.83;;;3.70;;
7899;SDS011;3995;50.856;4.404;2023-06-26T04:29:41;9.90;;;3.90;;
7899;SDS011;3995;50.856;4.404;2023-06-26T04:32:09;12.07;;;3.63;;
7899;SDS011;3995;50.856;4.404;2023-06-26T04:34:38;8.30;;;3.67;;
7899;SDS011;3995;50.856;4.404;2023-06-26T04:37:09;10.87;;;3.83;;
7899;SDS011;3995;50.856;4.404;2023-06-26T04:39:41;11.43;;;3.73;;
7899;SDS011;3995;50.856;4.404;2023-06-26T04:42:09;11.47;;;4.10;;
7899;SDS011;3995;50.856;4.404;2023-06-26T04:44:37;9.70;;;3.30;;
7899;SDS011;3995;50.856;4.404;2023-06-26T04:47:06;8.17;;;3.17;;
7899;SDS011;3995;50.856;4.404;2023-06-26T04:49:33;7.50;;;3.50;;
7899;SDS011;3995;50.856;4.404;2023-06-26T04:52:03;11.23;;;4.00;;
7899;SDS011;3995;50.856;4.404;2023-06-26T04:54:30;11.77;;;3.80;;
7899;SDS011;3995;50.856;4.404;2023-06-26T04:56:58;11.40;;;3.60;;
7899;SDS011;3995;50.856;4.404;2023-06-26T04:59:25;6.27;;;2.93;;
7899;SDS011;3995;50.856;4.404;2023-06-26T05:01:52;11.67;;;3.50;;
7899;SDS011;3995;50.856;4.404;2023-06-26T05:04:20;11.30;;;3.80;;
7899;SDS011;3995;50.856;4.404;2023-06-26T05:06:48;9.50;;;3.70;;
7899;SDS011;3995;50.856;4.404;2023-06-26T05:09:17;10.30;;;3.83;;
7899;SDS011;3995;50.856;4.404;2023-06-26T05:11:44;9.13;;;3.10;;
7899;SDS011;3995;50.856;4.404;2023-06-26T05:14:11;7.37;;;3.00;;
7899;SDS011;3995;50.856;4.404;2023-06-26T05:16:39;8.97;;;3.03;;
7899;SDS011;3995;50.856;4.404;2023-06-26T05:19:07;8.40;;;3.80;;
7899;SDS011;3995;50.856;4.404;2023-06-26T05:21:34;8.70;;;3.70;;
7899;SDS011;3995;50.856;4.404;2023-06-26T05:24:03;6.80;;;3.20;;
7899;SDS011;3995;50.856;4.404;2023-06-26T05:26:34;12.03;;;3.73;;
7899;SDS011;3995;50.856;4.404;2023-06-26T05:29:03;8.13;;;3.13;;
7899;SDS011;3995;50.856;4.404;2023-06-26T05:31:31;9.63;;;3.50;;
7899;SDS011;3995;50.856;4.404;2023-06-26T05:34:02;5.93;;;2.80;;
7899;SDS011;3995;50.856;4.404;2023-06-26T05:36:31;6.63;;;3.00;;
7899;SDS011;3995;50.856;4.404;2023-06-26T05:39:01;8.50;;;3.20;;
7899;SDS011;3995;50.856;4.404;2023-06-26T05:41:29;10.80;;;2.87;;
7899;SDS011;3995;50.856;4.404;2023-06-26T05:43:59;11.63;;;3.60;;
7899;SDS011;3995;50.856;4.404;2023-06-26T05:46:26;17.27;;;3.60;;
7899;SDS011;3995;50.856;4.404;2023-06-26T05:48:54;9.60;;;3.17;;
7899;SDS011;3995;50.856;4.404;2023-06-26T05:51:23;6.40;;;2.83;;
7899;SDS011;3995;50.856;4.404;2023-06-26T05:53:51;7.83;;;2.93;;
7899;SDS011;3995;50.856;4.404;2023-06-26T05:56:19;7.30;;;3.00;;
7899;SDS011;3995;50.856;4.404;2023-06-26T05:58:47;10.30;;;3.27;;
7899;SDS011;3995;50.856;4.404;2023-06-26T06:01:17;6.77;;;3.33;;
7899;SDS011;3995;50.856;4.404;2023-06-26T06:03:45;16.40;;;4.10;;
7899;SDS011;3995;50.856;4.404;2023-06-26T06:06:12;5.07;;;2.83;;
7899;SDS011;3995;50.856;4.404;2023-06-26T06:08:41;8.43;;;2.53;;
7899;SDS011;3995;50.856;4.404;2023-06-26T06:11:08;9.33;;;2.90;;
7899;SDS011;3995;50.856;4.404;2023-06-26T06:13:36;8.90;;;3.57;;
7899;SDS011;3995;50.856;4.404;2023-06-26T06:16:04;10.70;;;2.70;;
7899;SDS011;3995;50.856;4.404;2023-06-26T06:18:34;10.30;;;2.70;;
7899;SDS011;3995;50.856;4.404;2023-06-26T06:21:02;5.67;;;2.53;;
7899;SDS011;3995;50.856;4.404;2023-06-26T06:23:29;7.77;;;2.70;;
7899;SDS011;3995;50.856;4.404;2023-06-26T06:25:57;12.20;;;3.30;;
7899;SDS011;3995;50.856;4.404;2023-06-26T06:28:24;7.00;;;2.47;;
7899;SDS011;3995;50.856;4.404;2023-06-26T06:30:52;8.70;;;3.03;;
7899;SDS011;3995;50.856;4.404;2023-06-26T06:33:19;6.33;;;2.90;;
7899;SDS011;3995;50.856;4.404;2023-06-26T06:35:48;6.53;;;2.53;;
7899;SDS011;3995;50.856;4.404;2023-06-26T06:38:16;4.97;;;2.27;;
7899;SDS011;3995;50.856;4.404;2023-06-26T06:40:47;6.00;;;2.30;;
7899;SDS011;3995;50.856;4.404;2023-06-26T06:43:15;10.10;;;2.70;;
7899;SDS011;3995;50.856;4.404;2023-06-26T06:45:46;4.03;;;2.63;;
7899;SDS011;3995;50.856;4.404;2023-06-26T06:48:17;11.93;;;2.53;;
7899;SDS011;3995;50.856;4.404;2023-06-26T06:50:44;7.33;;;2.70;;
7899;SDS011;3995;50.856;4.404;2023-06-26T06:53:13;7.10;;;2.43;;
7899;SDS011;3995;50.856;4.404;2023-06-26T06:55:40;4.63;;;2.30;;
7899;SDS011;3995;50.856;4.404;2023-06-26T06:58:08;9.07;;;2.83;;
7899;SDS011;3995;50.856;4.404;2023-06-26T07:00:35;7.97;;;2.73;;
7899;SDS011;3995;50.856;4.404;2023-06-26T07:03:03;9.30;;;2.57;;
7899;SDS011;3995;50.856;4.404;2023-06-26T07:05:30;5.40;;;2.80;;
7899;SDS011;3995;50.856;4.404;2023-06-26T07:07:57;9.33;;;2.43;;
7899;SDS011;3995;50.856;4.404;2023-06-26T07:10:33;5.13;;;2.50;;
7899;SDS011;3995;50.856;4.404;2023-06-26T07:13:01;5.87;;;2.50;;
7899;SDS011;3995;50.856;4.404;2023-06-26T07:15:29;7.40;;;2.27;;
7899;SDS011;3995;50.856;4.404;2023-06-26T07:17:57;5.20;;;2.20;;
7899;SDS011;3995;50.856;4.404;2023-06-26T07:20:25;9.00;;;2.80;;
7899;SDS011;3995;50.856;4.404;2023-06-26T07:22:53;4.80;;;2.03;;
7899;SDS011;3995;50.856;4.404;2023-06-26T07:25:20;9.10;;;2.10;;
7899;SDS011;3995;50.856;4.404;2023-06-26T07:27:50;4.60;;;1.93;;
7899;SDS011;3995;50.856;4.404;2023-06-26T07:30:18;10.60;;;2.33;;
7899;SDS011;3995;50.856;4.404;2023-06-26T07:32:45;7.73;;;2.33;;
7899;SDS011;3995;50.856;4.404;2023-06-26T07:35:14;10.03;;;1.97;;
7899;SDS011;3995;50.856;4.404;2023-06-26T07:37:42;5.90;;;2.67;;
7899;SDS011;3995;50.856;4.404;2023-06-26T07:40:10;9.63;;;2.33;;
7899;SDS011;3995;50.856;4.404;2023-06-26T07:42:38;5.93;;;1.83;;
7899;SDS011;3995;50.856;4.404;2023-06-26T07:45:08;8.13;;;2.50;;
7899;SDS011;3995;50.856;4.404;2023-06-26T07:47:37;6.53;;;2.27;;
7899;SDS011;3995;50.856;4.404;2023-06-26T07:50:05;6.83;;;2.20;;
7899;SDS011;3995;50.856;4.404;2023-06-26T07:52:33;5.90;;;2.23;;
7899;SDS011;3995;50.856;4.404;2023-06-26T07:55:02;6.67;;;2.30;;
7899;SDS011;3995;50.856;4.404;2023-06-26T07:57:29;7.53;;;2.67;;
7899;SDS011;3995;50.856;4.404;2023-06-26T07:59:57;8.60;;;2.50;;
7899;SDS011;3995;50.856;4.404;2023-06-26T08:02:27;8.27;;;2.33;;
7899;SDS011;3995;50.856;4.404;2023-06-26T08:04:54;3.67;;;2.13;;
7899;SDS011;3995;50.856;4.404;2023-06-26T08:07:22;3.43;;;1.60;;
7899;SDS011;3995;50.856;4.404;2023-06-26T08:09:49;9.70;;;2.87;;
7899;SDS011;3995;50.856;4.404;2023-06-26T08:12:17;8.33;;;2.53;;
7899;SDS011;3995;50.856;4.404;2023-06-26T08:14:45;4.23;;;1.90;;
7899;SDS011;3995;50.856;4.404;2023-06-26T08:17:12;6.03;;;2.13;;
7899;SDS011;3995;50.856;4.404;2023-06-26T08:19:42;6.10;;;2.07;;
7899;SDS011;3995;50.856;4.404;2023-06-26T08:22:10;6.20;;;2.00;;
7899;SDS011;3995;50.856;4.404;2023-06-26T08:24:37;4.70;;;1.90;;
7899;SDS011;3995;50.856;4.404;2023-06-26T08:27:05;5.30;;;1.97;;
7899;SDS011;3995;50.856;4.404;2023-06-26T08:29:33;7.77;;;4.07;;
7899;SDS011;3995;50.856;4.404;2023-06-26T08:32:00;5.73;;;1.90;;
7899;SDS011;3995;50.856;4.404;2023-06-26T08:34:28;5.40;;;2.00;;
7899;SDS011;3995;50.856;4.404;2023-06-26T08:36:57;5.30;;;1.90;;
7899;SDS011;3995;50.856;4.404;2023-06-26T08:39:25;6.70;;;2.10;;
7899;SDS011;3995;50.856;4.404;2023-06-26T08:41:53;3.97;;;2.07;;
7899;SDS011;3995;50.856;4.404;2023-06-26T08:44:21;7.03;;;2.03;;
7899;SDS011;3995;50.856;4.404;2023-06-26T08:46:49;3.27;;;1.90;;
7899;SDS011;3995;50.856;4.404;2023-06-26T08:49:18;6.90;;;2.10;;
7899;SDS011;3995;50.856;4.404;2023-06-26T08:51:50;5.40;;;1.70;;
7899;SDS011;3995;50.856;4.404;2023-06-26T08:54:25;4.63;;;1.80;;
7899;SDS011;3995;50.856;4.404;2023-06-26T08:56:58;3.10;;;1.60;;
7899;SDS011;3995;50.856;4.404;2023-06-26T08:59:26;7.03;;;1.70;;
7899;SDS011;3995;50.856;4.404;2023-06-26T09:01:54;8.53;;;2.00;;
7899;SDS011;3995;50.856;4.404;2023-06-26T09:04:22;4.40;;;2.07;;
7899;SDS011;3995;50.856;4.404;2023-06-26T09:06:49;4.53;;;1.77;;
7899;SDS011;3995;50.856;4.404;2023-06-26T09:09:16;7.97;;;2.13;;
7899;SDS011;3995;50.856;4.404;2023-06-26T09:11:45;5.10;;;1.83;;
7899;SDS011;3995;50.856;4.404;2023-06-26T09:14:13;6.73;;;1.90;;
7899;SDS011;3995;50.856;4.404;2023-06-26T09:16:41;4.33;;;2.00;;
7899;SDS011;3995;50.856;4.404;2023-06-26T09:19:09;4.30;;;2.10;;
7899;SDS011;3995;50.856;4.404;2023-06-26T09:21:37;5.93;;;2.03;;
7899;SDS011;3995;50.856;4.404;2023-06-26T09:24:05;5.83;;;1.60;;
7899;SDS011;3995;50.856;4.404;2023-06-26T09:26:34;4.80;;;1.60;;
7899;SDS011;3995;50.856;4.404;2023-06-26T09:29:04;13.07;;;2.40;;
7899;SDS011;3995;50.856;4.404;2023-06-26T09:31:32;4.70;;;2.23;;
7899;SDS011;3995;50.856;4.404;2023-06-26T09:34:01;4.60;;;1.90;;
7899;SDS011;3995;50.856;4.404;2023-06-26T09:36:29;6.03;;;1.90;;
7899;SDS011;3995;50.856;4.404;2023-06-26T09:38:58;3.60;;;1.90;;
7899;SDS011;3995;50.856;4.404;2023-06-26T09:41:26;5.20;;;1.90;;
7899;SDS011;3995;50.856;4.404;2023-06-26T09:43:57;3.47;;;2.10;;
7899;SDS011;3995;50.856;4.404;2023-06-26T09:46:30;7.97;;;1.70;;
7899;SDS011;3995;50.856;4.404;2023-06-26T09:48:58;7.27;;;2.70;;
7899;SDS011;3995;50.856;4.404;2023-06-26T09:51:29;6.80;;;2.17;;
7899;SDS011;3995;50.856;4.404;2023-06-26T09:53:57;7.43;;;2.23;;
7899;SDS011;3995;50.856;4.404;2023-06-26T09:56:24;3.40;;;1.70;;
7899;SDS011;3995;50.856;4.404;2023-06-26T09:58:54;5.07;;;1.90;;
7899;SDS011;3995;50.856;4.404;2023-06-26T10:01:22;5.00;;;2.13;;
7899;SDS011;3995;50.856;4.404;2023-06-26T10:03:51;8.47;;;2.47;;
7899;SDS011;3995;50.856;4.404;2023-06-26T10:06:22;4.87;;;1.80;;
7899;SDS011;3995;50.856;4.404;2023-06-26T10:08:57;7.47;;;2.47;;
7899;SDS011;3995;50.856;4.404;2023-06-26T10:11:29;9.20;;;1.70;;
7899;SDS011;3995;50.856;4.404;2023-06-26T10:14:04;5.70;;;1.80;;
7899;SDS011;3995;50.856;4.404;2023-06-26T10:16:43;7.83;;;1.93;;
7899;SDS011;3995;50.856;4.404;2023-06-26T10:19:14;3.03;;;1.60;;
7899;SDS011;3995;50.856;4.404;2023-06-26T10:21:51;4.70;;;2.17;;
7899;SDS011;3995;50.856;4.404;2023-06-26T10:24:24;2.90;;;1.70;;
7899;SDS011;3995;50.856;4.404;2023-06-26T10:26:57;2.30;;;1.80;;
7899;SDS011;3995;50.856;4.404;2023-06-26T10:29:29;4.00;;;2.30;;
7899;SDS011;3995;50.856;4.404;2023-06-26T10:31:59;4.83;;;2.13;;
7899;SDS011;3995;50.856;4.404;2023-06-26T10:34:31;5.53;;;2.00;;
7899;SDS011;3995;50.856;4.404;2023-06-26T10:36:59;5.07;;;2.00;;
7899;SDS011;3995;50.856;4.404;2023-06-26T10:39:27;7.53;;;2.20;;
7899;SDS011;3995;50.856;4.404;2023-06-26T10:42:08;5.57;;;2.30;;
7899;SDS011;3995;50.856;4.404;2023-06-26T10:44:42;7.97;;;2.47;;
7899;SDS011;3995;50.856;4.404;2023-06-26T10:47:11;8.77;;;2.70;;
7899;SDS011;3995;50.856;4.404;2023-06-26T10:49:57;3.73;;;1.73;;
7899;SDS011;3995;50.856;4.404;2023-06-26T10:52:44;2.70;;;1.60;;
7899;SDS011;3995;50.856;4.404;2023-06-26T10:55:13;7.17;;;1.73;;
7899;SDS011;3995;50.856;4.404;2023-06-26T10:57:44;4.90;;;2.07;;
7899;SDS011;3995;50.856;4.404;2023-06-26T11:00:14;2.77;;;1.57;;
7899;SDS011;3995;50.856;4.404;2023-06-26T11:02:50;4.33;;;1.83;;
7899;SDS011;3995;50.856;4.404;2023-06-26T11:05:25;7.17;;;2.80;;
7899;SDS011;3995;50.856;4.404;2023-06-26T11:08:03;11.33;;;3.30;;
7899;SDS011;3995;50.856;4.404;2023-06-26T11:10:48;4.37;;;2.30;;
7899;SDS011;3995;50.856;4.404;2023-06-26T11:13:17;4.20;;;2.17;;
7899;SDS011;3995;50.856;4.404;2023-06-26T11:15:45;3.80;;;3.10;;
7899;SDS011;3995;50.856;4.404;2023-06-26T11:18:13;14.97;;;4.37;;
7899;SDS011;3995;50.856;4.404;2023-06-26T11:20:43;8.97;;;2.40;;
7899;SDS011;3995;50.856;4.404;2023-06-26T11:23:11;9.10;;;2.60;;
7899;SDS011;3995;50.856;4.404;2023-06-26T11:25:39;5.13;;;1.80;;
7899;SDS011;3995;50.856;4.404;2023-06-26T11:28:09;24.53;;;3.30;;
7899;SDS011;3995;50.856;4.404;2023-06-26T11:30:37;8.53;;;2.67;;
7899;SDS011;3995;50.856;4.404;2023-06-26T11:33:07;10.60;;;3.20;;
7899;SDS011;3995;50.856;4.404;2023-06-26T11:35:35;5.20;;;1.97;;
7899;SDS011;3995;50.856;4.404;2023-06-26T11:38:05;3.00;;;2.10;;
7899;SDS011;3995;50.856;4.404;2023-06-26T11:40:35;6.17;;;2.50;;
7899;SDS011;3995;50.856;4.404;2023-06-26T11:43:03;6.27;;;2.80;;
7899;SDS011;3995;50.856;4.404;2023-06-26T11:45:31;6.00;;;2.57;;
7899;SDS011;3995;50.856;4.404;2023-06-26T11:48:00;9.07;;;2.50;;
7899;SDS011;3995;50.856;4.404;2023-06-26T11:50:28;6.40;;;2.47;;
7899;SDS011;3995;50.856;4.404;2023-06-26T11:52:57;4.83;;;1.93;;
7899;SDS011;3995;50.856;4.404;2023-06-26T11:55:39;4.20;;;2.20;;
7899;SDS011;3995;50.856;4.404;2023-06-26T11:58:08;4.37;;;1.87;;
7899;SDS011;3995;50.856;4.404;2023-06-26T12:00:35;16.00;;;3.53;;
7899;SDS011;3995;50.856;4.404;2023-06-26T12:03:08;4.80;;;1.80;;
7899;SDS011;3995;50.856;4.404;2023-06-26T12:05:37;3.70;;;1.57;;
7899;SDS011;3995;50.856;4.404;2023-06-26T12:08:06;2.83;;;1.57;;
7899;SDS011;3995;50.856;4.404;2023-06-26T12:10:35;8.03;;;2.50;;
7899;SDS011;3995;50.856;4.404;2023-06-26T12:13:03;3.50;;;2.17;;
7899;SDS011;3995;50.856;4.404;2023-06-26T12:15:31;3.30;;;1.90;;
7899;SDS011;3995;50.856;4.404;2023-06-26T12:17:59;5.23;;;1.90;;
7899;SDS011;3995;50.856;4.404;2023-06-26T12:20:27;2.70;;;1.20;;
7899;SDS011;3995;50.856;4.404;2023-06-26T12:22:57;4.70;;;1.90;;
7899;SDS011;3995;50.856;4.404;2023-06-26T12:25:25;4.83;;;1.80;;
7899;SDS011;3995;50.856;4.404;2023-06-26T12:27:54;5.90;;;2.13;;
7899;SDS011;3995;50.856;4.404;2023-06-26T12:30:21;9.33;;;2.00;;
7899;SDS011;3995;50.856;4.404;2023-06-26T12:32:48;3.10;;;2.00;;
7899;SDS011;3995;50.856;4.404;2023-06-26T12:35:16;9.67;;;2.03;;
7899;SDS011;3995;50.856;4.404;2023-06-26T12:37:43;5.30;;;2.00;;
7899;SDS011;3995;50.856;4.404;2023-06-26T12:40:17;5.43;;;1.80;;
7899;SDS011;3995;50.856;4.404;2023-06-26T12:42:47;3.70;;;1.60;;
7899;SDS011;3995;50.856;4.404;2023-06-26T12:45:16;15.93;;;2.80;;
7899;SDS011;3995;50.856;4.404;2023-06-26T12:47:45;13.23;;;2.50;;
7899;SDS011;3995;50.856;4.404;2023-06-26T12:50:13;6.07;;;1.50;;
7899;SDS011;3995;50.856;4.404;2023-06-26T12:52:42;4.10;;;1.93;;
7899;SDS011;3995;50.856;4.404;2023-06-26T12:55:10;7.73;;;1.90;;
7899;SDS011;3995;50.856;4.404;2023-06-26T12:57:37;5.93;;;1.97;;
7899;SDS011;3995;50.856;4.404;2023-06-26T13:00:05;2.60;;;2.00;;
7899;SDS011;3995;50.856;4.404;2023-06-26T13:02:36;6.00;;;1.63;;
7899;SDS011;3995;50.856;4.404;2023-06-26T13:05:04;3.33;;;1.90;;
7899;SDS011;3995;50.856;4.404;2023-06-26T13:07:32;3.27;;;2.20;;
7899;SDS011;3995;50.856;4.404;2023-06-26T13:09:59;3.83;;;1.60;;
7899;SDS011;3995;50.856;4.404;2023-06-26T13:12:27;1.80;;;1.40;;
7899;SDS011;3995;50.856;4.404;2023-06-26T13:14:54;4.50;;;2.13;;
7899;SDS011;3995;50.856;4.404;2023-06-26T13:17:22;4.20;;;1.80;;
7899;SDS011;3995;50.856;4.404;2023-06-26T13:19:52;6.73;;;2.30;;
7899;SDS011;3995;50.856;4.404;2023-06-26T13:22:19;5.40;;;1.77;;
7899;SDS011;3995;50.856;4.404;2023-06-26T13:24:46;4.50;;;2.43;;
7899;SDS011;3995;50.856;4.404;2023-06-26T13:27:15;3.60;;;1.73;;
7899;SDS011;3995;50.856;4.404;2023-06-26T13:29:42;5.73;;;1.77;;
7899;SDS011;3995;50.856;4.404;2023-06-26T13:32:10;6.73;;;2.43;;
7899;SDS011;3995;50.856;4.404;2023-06-26T13:34:37;4.40;;;2.10;;
7899;SDS011;3995;50.856;4.404;2023-06-26T13:37:08;7.33;;;2.00;;
7899;SDS011;3995;50.856;4.404;2023-06-26T13:39:36;4.50;;;2.20;;
7899;SDS011;3995;50.856;4.404;2023-06-26T13:42:04;5.03;;;2.00;;
7899;SDS011;3995;50.856;4.404;2023-06-26T13:44:32;2.97;;;1.37;;
7899;SDS011;3995;50.856;4.404;2023-06-26T13:46:59;6.17;;;1.90;;
7899;SDS011;3995;50.856;4.404;2023-06-26T13:49:27;5.60;;;1.70;;
7899;SDS011;3995;50.856;4.404;2023-06-26T13:51:54;10.73;;;2.33;;
7899;SDS011;3995;50.856;4.404;2023-06-26T13:54:24;3.70;;;1.63;;
7899;SDS011;3995;50.856;4.404;2023-06-26T13:56:51;4.90;;;1.83;;
7899;SDS011;3995;50.856;4.404;2023-06-26T13:59:22;3.83;;;1.30;;
7899;SDS011;3995;50.856;4.404;2023-06-26T14:01:50;3.63;;;1.67;;
7899;SDS011;3995;50.856;4.404;2023-06-26T14:04:19;4.27;;;2.13;;
7899;SDS011;3995;50.856;4.404;2023-06-26T14:06:46;8.00;;;1.77;;
7899;SDS011;3995;50.856;4.404;2023-06-26T14:09:13;3.80;;;1.63;;
7899;SDS011;3995;50.856;4.404;2023-06-26T14:11:43;3.80;;;1.63;;
7899;SDS011;3995;50.856;4.404;2023-06-26T14:14:10;4.70;;;1.70;;
7899;SDS011;3995;50.856;4.404;2023-06-26T14:16:38;16.83;;;2.17;;
7899;SDS011;3995;50.856;4.404;2023-06-26T14:19:06;3.13;;;1.60;;
7899;SDS011;3995;50.856;4.404;2023-06-26T14:21:35;7.23;;;1.80;;
7899;SDS011;3995;50.856;4.404;2023-06-26T14:24:03;6.80;;;2.33;;
7899;SDS011;3995;50.856;4.404;2023-06-26T14:26:30;5.70;;;2.30;;
7899;SDS011;3995;50.856;4.404;2023-06-26T14:29:00;5.07;;;2.10;;
7899;SDS011;3995;50.856;4.404;2023-06-26T14:31:27;5.27;;;2.30;;
7899;SDS011;3995;50.856;4.404;2023-06-26T14:33:56;3.83;;;1.80;;
7899;SDS011;3995;50.856;4.404;2023-06-26T14:36:24;4.57;;;1.70;;
7899;SDS011;3995;50.856;4.404;2023-06-26T14:38:52;6.73;;;2.20;;
7899;SDS011;3995;50.856;4.404;2023-06-26T14:41:20;4.53;;;2.07;;
7899;SDS011;3995;50.856;4.404;2023-06-26T14:43:47;5.03;;;1.60;;
7899;SDS011;3995;50.856;4.404;2023-06-26T14:46:16;4.13;;;1.90;;
7899;SDS011;3995;50.856;4.404;2023-06-26T14:48:44;5.93;;;1.93;;
7899;SDS011;3995;50.856;4.404;2023-06-26T14:51:12;4.50;;;1.77;;
7899;SDS011;3995;50.856;4.404;2023-06-26T14:53:39;4.70;;;1.87;;
7899;SDS011;3995;50.856;4.404;2023-06-26T14:56:07;2.43;;;1.67;;
7899;SDS011;3995;50.856;4.404;2023-06-26T14:58:34;6.47;;;1.90;;
7899;SDS011;3995;50.856;4.404;2023-06-26T15:01:01;4.40;;;2.30;;
7899;SDS011;3995;50.856;4.404;2023-06-26T15:03:31;4.13;;;1.80;;
7899;SDS011;3995;50.856;4.404;2023-06-26T15:05:58;3.53;;;1.70;;
7899;SDS011;3995;50.856;4.404;2023-06-26T15:08:26;6.23;;;1.87;;
7899;SDS011;3995;50.856;4.404;2023-06-26T15:10:53;5.20;;;2.53;;
7899;SDS011;3995;50.856;4.404;2023-06-26T15:13:20;3.63;;;1.97;;
7899;SDS011;3995;50.856;4.404;2023-06-26T15:15:48;3.40;;;2.00;;
7899;SDS011;3995;50.856;4.404;2023-06-26T15:18:16;3.80;;;1.63;;
7899;SDS011;3995;50.856;4.404;2023-06-26T15:20:45;4.33;;;2.20;;
7899;SDS011;3995;50.856;4.404;2023-06-26T15:23:12;9.40;;;2.03;;
7899;SDS011;3995;50.856;4.404;2023-06-26T15:25:40;8.00;;;2.33;;
7899;SDS011;3995;50.856;4.404;2023-06-26T15:28:07;4.93;;;2.43;;